createdAt,value
2019-05-21T00:00:27.673Z,47.36
2019-05-21T00:02:59.329Z,47.89
2019-05-21T00:05:31.187Z,47.68
2019-05-21T00:08:02.759Z,47.87
2019-05-21T00:10:34.097Z,48.07
2019-05-21T00:13:05.532Z,48.54
2019-05-21T00:15:38.835Z,48.63
2019-05-21T00:18:10.494Z,48.41
2019-05-21T00:20:41.832Z,48.40
2019-05-21T00:23:13.796Z,47.99
2019-05-21T00:25:45.763Z,48.06
2019-05-21T00:28:35.643Z,48.58
2019-05-21T00:31:44.643Z,48.70
2019-05-21T00:34:52.884Z,49.01
2019-05-21T00:38:01.106Z,49.26
2019-05-21T00:41:09.311Z,48.81
2019-05-21T00:43:43.831Z,49.16
2019-05-21T00:46:15.078Z,49.08
2019-05-21T00:48:46.630Z,49.00
2019-05-21T00:51:18.190Z,49.10
2019-05-21T00:53:49.733Z,49.13
2019-05-21T00:56:21.710Z,49.16
2019-05-21T00:58:53.258Z,49.70
2019-05-21T01:01:25.115Z,49.91
2019-05-21T01:03:56.732Z,49.98
2019-05-21T01:06:28.527Z,50.20
2019-05-21T01:09:00.076Z,50.30
2019-05-21T01:11:32.043Z,50.37
2019-05-21T01:14:03.700Z,50.88
2019-05-21T01:16:35.456Z,50.89
2019-05-21T01:19:06.911Z,50.69
2019-05-21T01:21:38.764Z,51.12
2019-05-21T01:24:10.622Z,51.86
2019-05-21T01:26:42.121Z,51.22
2019-05-21T01:29:13.627Z,51.39
2019-05-21T01:31:45.284Z,50.90
2019-05-21T01:34:16.937Z,51.28
2019-05-21T01:36:48.594Z,51.23
2019-05-21T01:39:20.351Z,50.98
2019-05-21T01:41:52.214Z,50.68
2019-05-21T01:44:23.660Z,50.80
2019-05-21T01:46:55.315Z,50.13
2019-05-21T01:49:26.871Z,50.13
2019-05-21T01:51:58.735Z,49.86
2019-05-21T01:54:30.185Z,49.73
2019-05-21T01:57:02.280Z,50.09
2019-05-21T01:59:34.103Z,49.42
2019-05-21T02:02:05.766Z,49.63
2019-05-21T02:04:37.523Z,49.80
2019-05-21T02:07:09.274Z,49.58
2019-05-21T02:09:58.647Z,49.63
2019-05-21T02:12:30.510Z,49.98
2019-05-21T02:15:02.068Z,50.18
2019-05-21T02:17:33.925Z,50.28
2019-05-21T02:20:06.287Z,50.54
2019-05-21T02:22:37.967Z,51.00
2019-05-21T02:25:09.706Z,51.03
2019-05-21T02:27:41.489Z,50.49
2019-05-21T02:30:14.553Z,50.52
2019-05-21T02:32:46.009Z,50.58
2019-05-21T02:35:17.667Z,50.25
2019-05-21T02:37:50.943Z,49.76
2019-05-21T02:40:22.400Z,49.70
2019-05-21T02:42:55.388Z,49.10
2019-05-21T02:45:27.039Z,49.63
2019-05-21T02:47:58.906Z,49.55
2019-05-21T02:50:30.555Z,49.21
2019-05-21T02:53:01.927Z,48.79
2019-05-21T02:55:33.561Z,48.69
2019-05-21T02:58:05.212Z,48.72
2019-05-21T03:00:44.343Z,48.22
2019-05-21T03:06:13.636Z,47.86
2019-05-21T03:08:36.110Z,47.90
2019-05-21T03:11:07.555Z,48.26
2019-05-21T03:13:39.414Z,47.99
2019-05-21T03:16:10.973Z,48.10
2019-05-21T03:18:42.833Z,47.95
2019-05-21T03:21:14.384Z,47.36
2019-05-21T03:23:46.260Z,47.41
2019-05-21T03:26:18.201Z,48.21
2019-05-21T03:28:49.551Z,48.23
2019-05-21T03:31:20.879Z,48.05
2019-05-21T03:33:52.664Z,47.63
2019-05-21T03:36:33.214Z,47.76
2019-05-21T03:38:57.709Z,47.93
2019-05-21T03:41:31.003Z,48.14
2019-05-21T03:44:02.562Z,48.21
2019-05-21T03:46:34.014Z,48.31
2019-05-21T03:49:05.972Z,48.51
2019-05-21T03:51:38.547Z,48.68
2019-05-21T03:54:10.404Z,48.30
2019-05-21T03:56:41.963Z,48.10
2019-05-21T03:59:13.522Z,48.08
2019-05-21T04:01:45.286Z,48.02
2019-05-21T04:04:16.953Z,48.03
2019-05-21T04:06:52.159Z,47.63
2019-05-21T04:09:22.091Z,47.05
2019-05-21T04:11:53.862Z,47.12
2019-05-21T04:14:30.207Z,47.33
2019-05-21T04:17:12.517Z,47.03
2019-05-21T04:19:45.302Z,47.53
2019-05-21T04:22:17.252Z,47.94
2019-05-21T04:24:50.524Z,48.08
2019-05-21T04:27:22.199Z,47.85
2019-05-21T04:29:53.974Z,48.38
2019-05-21T04:32:25.622Z,48.59
2019-05-21T04:34:57.262Z,48.42
2019-05-21T04:37:31.290Z,48.79
2019-05-21T04:40:03.256Z,48.29
2019-05-21T04:42:35.215Z,48.57
2019-05-21T04:45:07.884Z,47.85
2019-05-21T04:47:39.642Z,47.71
2019-05-21T04:50:11.717Z,47.25
2019-05-21T04:52:43.266Z,46.02
2019-05-21T04:55:15.040Z,46.40
2019-05-21T04:57:46.671Z,46.68
2019-05-21T05:00:18.123Z,46.70
2019-05-21T05:02:50.534Z,46.48
2019-05-21T05:05:22.152Z,46.70
2019-05-21T05:07:53.903Z,46.53
2019-05-21T05:10:25.770Z,45.97
2019-05-21T05:12:57.626Z,45.65
2019-05-21T05:15:29.387Z,45.57
2019-05-21T05:18:00.933Z,45.88
2019-05-21T05:20:32.598Z,44.84
2019-05-21T05:23:04.143Z,44.77
2019-05-21T05:25:36.008Z,44.11
2019-05-21T05:28:08.581Z,43.58
2019-05-21T05:30:40.241Z,43.02
2019-05-21T05:33:12.192Z,42.68
2019-05-21T05:35:44.063Z,42.40
2019-05-21T05:38:15.922Z,42.70
2019-05-21T05:40:49.965Z,41.53
2019-05-21T05:43:21.691Z,41.11
2019-05-21T05:45:53.140Z,40.15
2019-05-21T05:48:25.109Z,40.18
2019-05-21T05:50:58.599Z,39.68
2019-05-21T05:53:30.144Z,38.55
2019-05-21T05:56:03.768Z,39.50
2019-05-21T05:58:35.824Z,39.54
2019-05-21T06:01:07.574Z,38.60
2019-05-21T06:03:39.748Z,38.89
2019-05-21T06:06:11.299Z,36.86
2019-05-21T06:08:43.159Z,37.29
2019-05-21T06:11:14.908Z,36.78
2019-05-21T06:13:46.770Z,37.99
2019-05-21T06:16:18.431Z,37.17
2019-05-21T06:18:50.720Z,37.55
2019-05-21T06:21:22.405Z,37.83
2019-05-21T06:23:53.795Z,37.70
2019-05-21T06:26:25.559Z,38.21
2019-05-21T06:28:57.927Z,39.00
2019-05-21T06:31:29.698Z,39.45
2019-05-21T06:34:01.139Z,39.10
2019-05-21T06:36:35.257Z,38.56
2019-05-21T06:39:07.827Z,39.06
2019-05-21T06:41:39.694Z,39.35
2019-05-21T06:44:11.140Z,39.95
2019-05-21T06:46:43.160Z,39.86
2019-05-21T06:49:14.563Z,40.37
2019-05-21T06:51:46.246Z,40.25
2019-05-21T06:54:20.421Z,40.76
2019-05-21T06:56:52.383Z,40.85
2019-05-21T06:59:24.050Z,40.74
2019-05-21T07:01:55.916Z,40.87
2019-05-21T07:04:29.372Z,40.91
2019-05-21T07:07:00.553Z,41.52
2019-05-21T07:09:32.829Z,41.41
2019-05-21T07:12:05.446Z,41.55
2019-05-21T07:14:38.390Z,40.83
2019-05-21T07:17:10.336Z,41.27
2019-05-21T07:19:41.952Z,40.96
2019-05-21T07:22:13.967Z,41.35
2019-05-21T07:24:45.333Z,41.71
2019-05-21T07:27:17.061Z,41.71
2019-05-21T07:29:49.129Z,41.53
2019-05-21T07:32:20.998Z,41.52
2019-05-21T07:34:52.446Z,41.06
2019-05-21T07:37:24.358Z,40.64
2019-05-21T07:39:55.850Z,39.76
2019-05-21T07:42:27.740Z,39.69
2019-05-21T07:44:59.379Z,39.89
2019-05-21T07:47:51.847Z,39.61
2019-05-21T07:50:23.258Z,39.55
2019-05-21T07:52:55.074Z,39.08
2019-05-21T07:55:26.723Z,38.37
2019-05-21T07:57:58.751Z,37.24
2019-05-21T08:00:31.945Z,37.00
2019-05-21T08:03:03.699Z,35.75
2019-05-21T08:05:35.067Z,35.11
2019-05-21T08:08:07.210Z,35.12
2019-05-21T08:10:38.650Z,35.06
2019-05-21T08:13:10.313Z,35.22
2019-05-21T08:15:42.301Z,36.15
2019-05-21T08:18:14.273Z,36.11
2019-05-21T08:20:46.807Z,35.42
2019-05-21T08:23:19.719Z,35.18
2019-05-21T08:25:51.182Z,33.89
2019-05-21T08:28:23.116Z,33.74
2019-05-21T08:30:55.305Z,34.69
2019-05-21T08:33:27.023Z,34.20
2019-05-21T08:35:59.057Z,34.51
2019-05-21T08:38:30.753Z,35.14
2019-05-21T08:41:03.635Z,36.57
2019-05-21T08:43:35.187Z,36.16
2019-05-21T08:46:07.047Z,36.84
2019-05-21T08:48:39.009Z,35.89
2019-05-21T08:51:11.607Z,35.14
2019-05-21T08:53:43.651Z,34.67
2019-05-21T08:56:15.114Z,34.41
2019-05-21T08:58:47.170Z,33.42
2019-05-21T09:01:18.622Z,33.27
2019-05-21T09:04:17.729Z,32.56
2019-05-21T09:06:49.361Z,32.58
2019-05-21T09:09:21.539Z,32.39
2019-05-21T09:11:53.084Z,33.09
2019-05-21T09:14:24.685Z,34.23
2019-05-21T09:16:56.327Z,34.82
2019-05-21T09:19:28.054Z,35.32
2019-05-21T09:21:59.540Z,35.68
2019-05-21T09:24:31.051Z,36.10
2019-05-21T09:27:04.308Z,36.56
2019-05-21T09:29:36.309Z,37.15
2019-05-21T09:32:08.167Z,37.71
2019-05-21T09:34:48.893Z,37.71
2019-05-21T09:37:19.630Z,38.31
2019-05-21T09:40:09.455Z,38.67
2019-05-21T09:42:46.934Z,38.32
2019-05-21T09:45:20.657Z,38.19
2019-05-21T09:47:52.003Z,37.50
2019-05-21T09:50:23.754Z,36.84
2019-05-21T09:52:55.113Z,36.22
2019-05-21T09:55:29.122Z,35.76
2019-05-21T09:58:04.765Z,35.79
2019-05-21T10:00:59.988Z,35.41
2019-05-21T10:03:33.418Z,36.11
2019-05-21T10:06:07.170Z,35.66
2019-05-21T10:08:50.362Z,35.10
2019-05-21T10:11:22.567Z,34.76
2019-05-21T10:13:53.904Z,33.49
2019-05-21T10:16:25.673Z,33.18
2019-05-21T10:18:57.136Z,33.47
2019-05-21T10:21:47.217Z,33.17
2019-05-21T10:24:18.873Z,32.92
2019-05-21T10:26:50.622Z,32.92
2019-05-21T10:29:22.378Z,33.53
2019-05-21T10:31:54.139Z,32.40
2019-05-21T10:34:26.301Z,32.05
2019-05-21T10:36:58.067Z,33.33
2019-05-21T10:39:29.418Z,33.57
2019-05-21T10:42:20.549Z,33.41
2019-05-21T10:44:51.978Z,34.09
2019-05-21T10:47:29.767Z,34.36
2019-05-21T10:50:01.116Z,35.20
2019-05-21T10:52:33.902Z,35.94
2019-05-21T10:55:09.855Z,35.54
2019-05-21T10:57:41.436Z,35.09
2019-05-21T11:00:14.940Z,35.76
2019-05-21T11:02:48.194Z,36.08
2019-05-21T11:05:24.376Z,36.06
2019-05-21T11:07:55.925Z,36.13
2019-05-21T11:10:27.575Z,36.87
2019-05-21T11:12:59.650Z,37.12
2019-05-21T11:15:32.578Z,37.10
2019-05-21T11:18:11.017Z,36.83
2019-05-21T11:20:45.661Z,35.63
2019-05-21T11:23:17.419Z,35.19
2019-05-21T11:25:49.277Z,34.43
2019-05-21T11:28:21.045Z,33.86
2019-05-21T11:30:57.340Z,33.24
2019-05-21T11:33:31.825Z,33.03
2019-05-21T11:36:03.997Z,32.86
2019-05-21T11:38:40.182Z,32.02
2019-05-21T11:41:08.869Z,32.67
2019-05-21T11:43:42.972Z,32.75
2019-05-21T11:46:32.111Z,32.86
2019-05-21T11:49:09.101Z,33.28
2019-05-21T11:51:40.439Z,33.17
2019-05-21T11:54:12.018Z,32.91
2019-05-21T11:56:43.774Z,32.70
2019-05-21T11:59:16.568Z,32.85
2019-05-21T12:01:48.514Z,32.69
2019-05-21T12:04:20.156Z,31.70
2019-05-21T12:06:51.504Z,32.13
2019-05-21T12:09:23.305Z,31.74
2019-05-21T12:11:57.375Z,31.90
2019-05-21T12:14:29.127Z,31.46
2019-05-21T12:17:00.582Z,31.18
2019-05-21T12:19:32.997Z,31.40
2019-05-21T12:22:04.415Z,31.05
2019-05-21T12:24:38.525Z,31.91
2019-05-21T12:27:10.182Z,30.97
2019-05-21T12:29:41.735Z,31.20
2019-05-21T12:32:13.179Z,31.33
2019-05-21T12:34:47.284Z,32.14
2019-05-21T12:37:19.389Z,32.28
2019-05-21T12:39:51.043Z,32.53
2019-05-21T12:42:22.768Z,32.15
2019-05-21T12:44:55.096Z,32.48
2019-05-21T12:47:26.951Z,31.93
2019-05-21T12:49:58.742Z,32.04
2019-05-21T12:52:33.656Z,32.38
2019-05-21T12:55:07.635Z,31.83
2019-05-21T12:57:39.355Z,31.67
2019-05-21T13:00:13.288Z,31.88
2019-05-21T13:02:44.718Z,31.80
2019-05-21T13:05:16.682Z,31.92
2019-05-21T13:07:48.432Z,32.03
2019-05-21T13:10:22.698Z,32.73
2019-05-21T13:12:54.132Z,32.17
2019-05-21T13:15:27.297Z,32.81
2019-05-21T13:17:59.000Z,33.26
2019-05-21T13:20:30.721Z,33.02
2019-05-21T13:23:03.729Z,33.08
2019-05-21T13:25:36.559Z,32.95
2019-05-21T13:28:09.161Z,33.58
2019-05-21T13:30:44.093Z,33.68
2019-05-21T13:33:19.241Z,33.38
2019-05-21T13:35:48.945Z,33.24
2019-05-21T13:38:21.014Z,33.69
2019-05-21T13:40:54.403Z,33.96
2019-05-21T13:43:25.972Z,34.26
2019-05-21T13:45:57.924Z,34.57
2019-05-21T13:48:29.672Z,34.66
2019-05-21T13:51:01.650Z,34.20
2019-05-21T13:53:35.585Z,34.11
2019-05-21T13:56:07.718Z,34.53
2019-05-21T13:58:40.313Z,34.84
2019-05-21T14:01:15.909Z,34.63
2019-05-21T14:03:46.255Z,34.97
2019-05-21T14:06:20.335Z,34.86
2019-05-21T14:08:54.783Z,34.86
2019-05-21T14:11:26.466Z,34.59
2019-05-21T14:13:57.990Z,35.84
2019-05-21T14:16:34.776Z,35.34
2019-05-21T14:19:08.580Z,35.86
2019-05-21T14:21:40.656Z,35.03
2019-05-21T14:24:12.499Z,36.09
2019-05-21T14:26:44.385Z,35.97
2019-05-21T14:29:17.629Z,36.11
2019-05-21T14:31:50.334Z,36.18
2019-05-21T14:34:21.812Z,36.16
2019-05-21T14:36:54.275Z,36.78
2019-05-21T14:39:28.299Z,36.66
2019-05-21T14:42:00.146Z,37.13
2019-05-21T14:44:32.006Z,36.91
2019-05-21T14:47:05.187Z,37.09
2019-05-21T14:49:37.673Z,37.10
2019-05-21T14:52:10.980Z,37.37
2019-05-21T14:54:42.540Z,37.26
2019-05-21T14:57:14.077Z,37.75
2019-05-21T14:59:45.836Z,38.12
2019-05-21T15:02:18.511Z,38.02
2019-05-21T15:04:51.062Z,38.42
2019-05-21T15:07:23.471Z,38.50
2019-05-21T15:09:55.664Z,38.68
2019-05-21T15:12:27.889Z,39.20
2019-05-21T15:14:59.455Z,39.05
2019-05-21T15:17:41.082Z,39.38
2019-05-21T15:20:17.159Z,39.38
2019-05-21T15:25:35.170Z,40.20
2019-05-21T15:28:08.439Z,40.37
2019-05-21T15:30:42.087Z,41.17
2019-05-21T15:33:14.209Z,42.15
2019-05-21T15:35:46.758Z,42.27
2019-05-21T15:38:18.762Z,41.89
2019-05-21T15:41:09.826Z,42.21
2019-05-21T15:43:28.543Z,42.57
2019-05-21T15:46:00.609Z,42.63
2019-05-21T15:48:40.416Z,43.00
2019-05-21T15:51:11.960Z,42.73
2019-05-21T15:53:43.814Z,42.96
2019-05-21T15:56:15.256Z,43.64
2019-05-21T15:58:47.059Z,44.00
2019-05-21T16:01:18.684Z,44.35
2019-05-21T16:03:51.161Z,44.27
2019-05-21T16:06:22.633Z,44.47
2019-05-21T16:08:54.810Z,44.52
2019-05-21T16:11:28.977Z,43.71
2019-05-21T16:14:00.235Z,44.39
2019-05-21T16:16:31.699Z,44.95
2019-05-21T16:19:03.759Z,45.42
2019-05-21T16:21:35.204Z,45.30
2019-05-21T16:24:06.998Z,45.61
2019-05-21T16:26:38.513Z,46.06
2019-05-21T16:29:15.514Z,46.21
2019-05-21T16:31:47.470Z,46.72
2019-05-21T16:34:19.125Z,47.83
2019-05-21T16:36:51.003Z,47.35
2019-05-21T16:39:23.659Z,47.63
2019-05-21T16:41:58.228Z,47.92
2019-05-21T16:44:29.942Z,48.60
2019-05-21T16:47:01.497Z,48.27
2019-05-21T16:49:33.280Z,48.81
2019-05-21T16:52:05.032Z,48.62
2019-05-21T16:54:37.210Z,48.80
2019-05-21T16:57:09.377Z,48.92
2019-05-21T16:59:42.329Z,48.78
2019-05-21T17:02:29.664Z,49.35
2019-05-21T17:05:21.007Z,49.09
2019-05-21T17:07:52.330Z,49.76
2019-05-21T17:10:24.283Z,49.89
2019-05-21T17:12:56.040Z,50.12
2019-05-21T17:15:28.098Z,50.32
2019-05-21T17:17:59.656Z,50.64
2019-05-21T17:20:34.067Z,51.15
2019-05-21T17:23:06.145Z,51.31
2019-05-21T17:25:38.747Z,51.76
2019-05-21T17:28:10.697Z,51.65
2019-05-21T17:30:47.493Z,51.57
2019-05-21T17:33:20.577Z,51.75
2019-05-21T17:35:52.468Z,51.99
2019-05-21T17:38:24.739Z,52.46
2019-05-21T17:40:58.735Z,52.48
2019-05-21T17:43:30.920Z,52.76
2019-05-21T17:46:03.047Z,52.84
2019-05-21T17:48:35.387Z,52.74
2019-05-21T17:51:09.858Z,53.31
2019-05-21T17:53:41.821Z,53.77
2019-05-21T17:56:13.695Z,53.76
2019-05-21T17:58:45.821Z,54.14
2019-05-21T18:01:18.713Z,54.37
2019-05-21T18:03:59.371Z,54.44
2019-05-21T18:06:31.654Z,54.61
2019-05-21T18:09:05.305Z,54.67
2019-05-21T18:11:49.293Z,54.72
2019-05-21T18:14:21.194Z,54.59
2019-05-21T18:16:53.191Z,54.54
2019-05-21T18:19:24.869Z,54.36
2019-05-21T18:21:57.232Z,54.65
2019-05-21T18:24:29.416Z,54.73
2019-05-21T18:27:01.455Z,54.62
2019-05-21T18:29:33.433Z,55.03
2019-05-21T18:32:05.489Z,54.98
2019-05-21T18:34:37.315Z,54.92
2019-05-21T18:37:10.185Z,55.21
2019-05-21T18:39:45.423Z,55.63
2019-05-21T18:42:22.133Z,55.75
2019-05-21T18:44:51.508Z,56.23
2019-05-21T18:47:23.409Z,56.43
2019-05-21T18:49:55.154Z,56.38
2019-05-21T18:52:27.312Z,56.73
2019-05-21T18:54:58.757Z,56.78
2019-05-21T18:57:30.593Z,57.04
2019-05-21T19:00:02.671Z,56.95
2019-05-21T19:02:34.479Z,57.23
2019-05-21T19:05:10.021Z,57.51
2019-05-21T19:07:42.451Z,57.77
2019-05-21T19:10:16.885Z,57.50
2019-05-21T19:12:51.773Z,57.82
2019-05-21T19:15:41.637Z,58.42
2019-05-21T19:18:14.814Z,58.67
2019-05-21T19:20:50.088Z,58.97
2019-05-21T19:23:23.911Z,58.98
2019-05-21T19:25:57.187Z,59.04
2019-05-21T19:28:29.946Z,59.09
2019-05-21T19:31:02.410Z,59.29
2019-05-21T19:33:34.043Z,59.54
2019-05-21T19:36:19.968Z,59.94
2019-05-21T19:38:51.691Z,60.20
2019-05-21T19:41:23.556Z,60.57
2019-05-21T19:43:56.991Z,60.76
2019-05-21T19:46:29.882Z,60.56
2019-05-21T19:49:01.696Z,60.23
2019-05-21T19:51:33.235Z,60.71
2019-05-21T19:54:17.206Z,60.93
2019-05-21T19:56:48.754Z,61.15
2019-05-21T19:59:20.079Z,61.58
2019-05-21T20:01:57.881Z,61.89
2019-05-21T20:04:30.482Z,61.71
2019-05-21T20:07:02.221Z,62.13
2019-05-21T20:09:34.736Z,62.32
2019-05-21T20:12:25.240Z,62.30
2019-05-21T20:14:57.053Z,62.35
2019-05-21T20:17:28.787Z,62.87
2019-05-21T20:20:01.843Z,62.95
2019-05-21T20:22:33.547Z,63.48
2019-05-21T20:25:05.291Z,63.62
2019-05-21T20:27:37.626Z,63.25
2019-05-21T20:30:13.169Z,63.58
2019-05-21T20:32:50.324Z,63.52
2019-05-21T20:35:23.706Z,63.82
2019-05-21T20:37:55.857Z,64.25
2019-05-21T20:40:29.478Z,64.52
2019-05-21T20:43:19.904Z,64.64
2019-05-21T20:45:52.113Z,64.78
2019-05-21T20:48:26.141Z,64.94
2019-05-21T20:50:59.235Z,65.25
2019-05-21T20:53:30.596Z,65.48
2019-05-21T20:56:02.339Z,65.89
2019-05-21T20:58:33.785Z,66.08
2019-05-21T21:01:06.265Z,66.21
2019-05-21T21:03:37.609Z,66.55
2019-05-21T21:06:09.992Z,66.74
2019-05-21T21:08:41.635Z,66.90
2019-05-21T21:11:14.471Z,66.85
2019-05-21T21:13:46.379Z,66.84
2019-05-21T21:16:18.239Z,66.56
2019-05-21T21:18:49.803Z,66.39
2019-05-21T21:21:21.583Z,66.51
2019-05-21T21:23:56.434Z,66.85
2019-05-21T21:26:28.293Z,66.74
2019-05-21T21:28:59.791Z,66.53
2019-05-21T21:31:31.752Z,66.53
2019-05-21T21:34:04.136Z,66.74
2019-05-21T21:36:36.351Z,66.63
2019-05-21T21:39:08.172Z,66.65
2019-05-21T21:41:40.804Z,66.75
2019-05-21T21:44:12.554Z,66.78
2019-05-21T21:46:43.696Z,67.22
2019-05-21T21:49:15.953Z,67.61
2019-05-21T21:51:47.350Z,67.73
2019-05-21T21:54:20.849Z,67.33
2019-05-21T21:56:52.311Z,67.99
2019-05-21T21:59:24.180Z,67.90
2019-05-21T22:04:43.760Z,67.42
2019-05-21T22:07:16.335Z,67.33
2019-05-21T22:09:50.239Z,67.18
2019-05-21T22:12:21.901Z,67.09
2019-05-21T22:14:57.587Z,66.88
2019-05-21T22:17:29.348Z,67.18
2019-05-21T22:20:01.584Z,67.12
2019-05-21T22:22:34.759Z,66.94
2019-05-21T22:25:07.239Z,67.47
2019-05-21T22:27:39.619Z,67.67
2019-05-21T22:30:12.523Z,67.73
2019-05-21T22:32:44.561Z,67.99
2019-05-21T22:35:16.113Z,67.79
2019-05-21T22:37:50.225Z,68.27
2019-05-21T22:40:22.084Z,68.52
2019-05-21T22:42:54.046Z,68.89
2019-05-21T22:45:25.699Z,68.68
2019-05-21T22:47:57.252Z,68.94
2019-05-21T22:50:29.428Z,70.07
2019-05-21T22:53:00.896Z,69.77
2019-05-21T22:55:32.554Z,69.75
2019-05-21T22:58:05.513Z,69.76
2019-05-21T23:00:36.861Z,70.32
2019-05-21T23:03:08.560Z,70.25
2019-05-21T23:05:39.865Z,71.30
2019-05-21T23:08:11.866Z,70.46
2019-05-21T23:10:43.478Z,70.74
2019-05-21T23:13:14.932Z,71.19
2019-05-21T23:15:47.913Z,70.21
2019-05-21T23:18:24.390Z,70.58
2019-05-21T23:21:07.718Z,70.60
2019-05-21T23:23:41.127Z,69.25
2019-05-21T23:26:13.853Z,69.58
2019-05-21T23:28:45.651Z,68.74
2019-05-21T23:31:17.103Z,69.51
2019-05-21T23:33:50.191Z,69.16
2019-05-21T23:36:21.638Z,69.16
2019-05-21T23:38:52.995Z,69.14
2019-05-21T23:41:24.341Z,68.66
2019-05-21T23:43:56.091Z,68.77
2019-05-21T23:46:28.669Z,68.58
2019-05-21T23:49:00.327Z,68.57
2019-05-21T23:51:32.184Z,68.38
2019-05-21T23:54:04.556Z,68.64
2019-05-21T23:56:35.923Z,68.71
2019-05-21T23:59:07.561Z,67.93
